sensor_id;sensor_type;location;lat;lon;timestamp;P1;durP1;ratioP1;P2;durP2;ratioP2
21198;SDS011;10757;51.038;3.712;2022-07-30T00:02:27;13.93;;;6.03;;
21198;SDS011;10757;51.038;3.712;2022-07-30T00:04:53;13.63;;;5.82;;
21198;SDS011;10757;51.038;3.712;2022-07-30T00:07:18;10.38;;;6.00;;
21198;SDS011;10757;51.038;3.712;2022-07-30T00:09:44;11.73;;;6.05;;
21198;SDS011;10757;51.038;3.712;2022-07-30T00:12:10;13.13;;;6.38;;
21198;SDS011;10757;51.038;3.712;2022-07-30T00:14:35;14.15;;;6.88;;
21198;SDS011;10757;51.038;3.712;2022-07-30T00:17:01;15.88;;;6.22;;
21198;SDS011;10757;51.038;3.712;2022-07-30T00:19:28;12.43;;;6.47;;
21198;SDS011;10757;51.038;3.712;2022-07-30T00:21:54;12.68;;;5.88;;
21198;SDS011;10757;51.038;3.712;2022-07-30T00:24:20;12.15;;;7.35;;
21198;SDS011;10757;51.038;3.712;2022-07-30T00:26:46;14.73;;;8.05;;
21198;SDS011;10757;51.038;3.712;2022-07-30T00:29:11;14.45;;;6.85;;
21198;SDS011;10757;51.038;3.712;2022-07-30T00:31:37;16.70;;;6.53;;
21198;SDS011;10757;51.038;3.712;2022-07-30T00:34:03;15.20;;;7.10;;
21198;SDS011;10757;51.038;3.712;2022-07-30T00:36:29;12.13;;;6.18;;
21198;SDS011;10757;51.038;3.712;2022-07-30T00:38:58;17.63;;;7.20;;
21198;SDS011;10757;51.038;3.712;2022-07-30T00:41:24;12.70;;;6.78;;
21198;SDS011;10757;51.038;3.712;2022-07-30T00:43:50;14.05;;;6.88;;
21198;SDS011;10757;51.038;3.712;2022-07-30T00:46:15;16.25;;;7.20;;
21198;SDS011;10757;51.038;3.712;2022-07-30T00:48:41;16.67;;;7.72;;
21198;SDS011;10757;51.038;3.712;2022-07-30T00:51:07;16.63;;;7.65;;
21198;SDS011;10757;51.038;3.712;2022-07-30T00:53:33;16.58;;;7.68;;
21198;SDS011;10757;51.038;3.712;2022-07-30T00:55:59;13.95;;;7.75;;
21198;SDS011;10757;51.038;3.712;2022-07-30T00:58:26;14.07;;;7.43;;
21198;SDS011;10757;51.038;3.712;2022-07-30T01:00:51;15.30;;;8.48;;
21198;SDS011;10757;51.038;3.712;2022-07-30T01:03:17;15.02;;;8.25;;
21198;SDS011;10757;51.038;3.712;2022-07-30T01:05:43;19.20;;;8.38;;
21198;SDS011;10757;51.038;3.712;2022-07-30T01:08:09;20.77;;;8.52;;
21198;SDS011;10757;51.038;3.712;2022-07-30T01:10:35;13.88;;;8.00;;
21198;SDS011;10757;51.038;3.712;2022-07-30T01:13:01;19.23;;;8.23;;
21198;SDS011;10757;51.038;3.712;2022-07-30T01:15:28;9.68;;;7.53;;
21198;SDS011;10757;51.038;3.712;2022-07-30T01:17:56;14.63;;;8.05;;
21198;SDS011;10757;51.038;3.712;2022-07-30T01:20:29;20.98;;;7.88;;
21198;SDS011;10757;51.038;3.712;2022-07-30T01:28:06;12.68;;;8.55;;
21198;SDS011;10757;51.038;3.712;2022-07-30T01:30:37;20.40;;;8.60;;
21198;SDS011;10757;51.038;3.712;2022-07-30T01:33:05;17.65;;;8.20;;
21198;SDS011;10757;51.038;3.712;2022-07-30T01:35:35;14.55;;;7.75;;
21198;SDS011;10757;51.038;3.712;2022-07-30T01:38:03;15.48;;;8.43;;
21198;SDS011;10757;51.038;3.712;2022-07-30T01:40:30;12.02;;;7.97;;
21198;SDS011;10757;51.038;3.712;2022-07-30T01:42:57;13.80;;;8.85;;
21198;SDS011;10757;51.038;3.712;2022-07-30T01:45:25;15.90;;;8.63;;
21198;SDS011;10757;51.038;3.712;2022-07-30T01:47:57;21.85;;;8.32;;
21198;SDS011;10757;51.038;3.712;2022-07-30T01:50:25;13.38;;;8.05;;
21198;SDS011;10757;51.038;3.712;2022-07-30T01:52:53;16.25;;;7.47;;
21198;SDS011;10757;51.038;3.712;2022-07-30T01:55:33;12.35;;;7.78;;
21198;SDS011;10757;51.038;3.712;2022-07-30T01:58:00;12.88;;;7.78;;
21198;SDS011;10757;51.038;3.712;2022-07-30T02:00:28;14.50;;;7.93;;
21198;SDS011;10757;51.038;3.712;2022-07-30T02:02:57;12.98;;;7.97;;
21198;SDS011;10757;51.038;3.712;2022-07-30T02:05:23;10.10;;;7.20;;
21198;SDS011;10757;51.038;3.712;2022-07-30T02:08:10;17.48;;;7.45;;
21198;SDS011;10757;51.038;3.712;2022-07-30T02:10:44;13.02;;;6.97;;
21198;SDS011;10757;51.038;3.712;2022-07-30T02:13:18;19.15;;;7.05;;
21198;SDS011;10757;51.038;3.712;2022-07-30T02:16:00;12.25;;;6.93;;
21198;SDS011;10757;51.038;3.712;2022-07-30T02:18:50;13.25;;;6.85;;
21198;SDS011;10757;51.038;3.712;2022-07-30T02:21:21;14.65;;;6.50;;
21198;SDS011;10757;51.038;3.712;2022-07-30T02:23:48;13.95;;;6.85;;
21198;SDS011;10757;51.038;3.712;2022-07-30T02:26:17;12.88;;;6.38;;
21198;SDS011;10757;51.038;3.712;2022-07-30T02:28:46;11.30;;;6.90;;
21198;SDS011;10757;51.038;3.712;2022-07-30T02:31:14;14.23;;;7.18;;
21198;SDS011;10757;51.038;3.712;2022-07-30T02:33:43;13.25;;;7.07;;
21198;SDS011;10757;51.038;3.712;2022-07-30T02:36:11;14.73;;;6.53;;
21198;SDS011;10757;51.038;3.712;2022-07-30T02:38:39;11.93;;;6.88;;
21198;SDS011;10757;51.038;3.712;2022-07-30T02:41:07;12.32;;;7.40;;
21198;SDS011;10757;51.038;3.712;2022-07-30T02:43:34;14.10;;;7.57;;
21198;SDS011;10757;51.038;3.712;2022-07-30T02:46:01;14.48;;;7.82;;
21198;SDS011;10757;51.038;3.712;2022-07-30T02:48:28;10.23;;;6.43;;
21198;SDS011;10757;51.038;3.712;2022-07-30T02:50:55;12.82;;;7.30;;
21198;SDS011;10757;51.038;3.712;2022-07-30T02:53:22;13.90;;;8.07;;
21198;SDS011;10757;51.038;3.712;2022-07-30T02:55:49;15.77;;;9.13;;
21198;SDS011;10757;51.038;3.712;2022-07-30T02:58:19;14.45;;;7.70;;
21198;SDS011;10757;51.038;3.712;2022-07-30T03:00:48;14.93;;;8.25;;
21198;SDS011;10757;51.038;3.712;2022-07-30T03:03:16;12.00;;;7.85;;
21198;SDS011;10757;51.038;3.712;2022-07-30T03:05:42;17.23;;;9.00;;
21198;SDS011;10757;51.038;3.712;2022-07-30T03:08:09;18.65;;;8.90;;
21198;SDS011;10757;51.038;3.712;2022-07-30T03:10:36;15.02;;;8.57;;
21198;SDS011;10757;51.038;3.712;2022-07-30T03:13:05;14.93;;;8.45;;
21198;SDS011;10757;51.038;3.712;2022-07-30T03:15:34;14.23;;;7.72;;
21198;SDS011;10757;51.038;3.712;2022-07-30T03:18:01;13.40;;;8.02;;
21198;SDS011;10757;51.038;3.712;2022-07-30T03:20:29;19.77;;;8.88;;
21198;SDS011;10757;51.038;3.712;2022-07-30T03:22:57;13.43;;;9.13;;
21198;SDS011;10757;51.038;3.712;2022-07-30T03:25:25;19.35;;;9.32;;
21198;SDS011;10757;51.038;3.712;2022-07-30T03:27:56;13.23;;;8.95;;
21198;SDS011;10757;51.038;3.712;2022-07-30T03:30:24;15.45;;;9.77;;
21198;SDS011;10757;51.038;3.712;2022-07-30T03:32:51;15.75;;;9.55;;
21198;SDS011;10757;51.038;3.712;2022-07-30T03:35:20;17.30;;;9.13;;
21198;SDS011;10757;51.038;3.712;2022-07-30T03:37:48;17.50;;;9.13;;
21198;SDS011;10757;51.038;3.712;2022-07-30T03:40:15;14.50;;;9.40;;
21198;SDS011;10757;51.038;3.712;2022-07-30T03:42:41;12.43;;;9.38;;
21198;SDS011;10757;51.038;3.712;2022-07-30T03:45:09;15.48;;;10.02;;
21198;SDS011;10757;51.038;3.712;2022-07-30T03:47:38;20.77;;;11.25;;
21198;SDS011;10757;51.038;3.712;2022-07-30T03:50:06;19.50;;;10.35;;
21198;SDS011;10757;51.038;3.712;2022-07-30T03:52:32;18.50;;;10.52;;
21198;SDS011;10757;51.038;3.712;2022-07-30T03:55:02;17.05;;;11.00;;
21198;SDS011;10757;51.038;3.712;2022-07-30T03:57:29;21.13;;;10.57;;
21198;SDS011;10757;51.038;3.712;2022-07-30T03:59:55;16.23;;;10.77;;
21198;SDS011;10757;51.038;3.712;2022-07-30T04:02:20;19.52;;;11.13;;
21198;SDS011;10757;51.038;3.712;2022-07-30T04:04:46;19.05;;;11.38;;
21198;SDS011;10757;51.038;3.712;2022-07-30T04:07:12;19.95;;;11.43;;
21198;SDS011;10757;51.038;3.712;2022-07-30T04:09:38;17.23;;;11.68;;
21198;SDS011;10757;51.038;3.712;2022-07-30T04:12:03;17.50;;;11.10;;
21198;SDS011;10757;51.038;3.712;2022-07-30T04:14:47;20.08;;;12.00;;
21198;SDS011;10757;51.038;3.712;2022-07-30T04:19:52;20.15;;;12.05;;
21198;SDS011;10757;51.038;3.712;2022-07-30T04:22:29;16.67;;;10.70;;
21198;SDS011;10757;51.038;3.712;2022-07-30T04:24:57;17.55;;;11.63;;
21198;SDS011;10757;51.038;3.712;2022-07-30T04:27:27;14.40;;;11.13;;
21198;SDS011;10757;51.038;3.712;2022-07-30T04:29:55;17.17;;;11.27;;
21198;SDS011;10757;51.038;3.712;2022-07-30T04:32:21;20.15;;;10.68;;
21198;SDS011;10757;51.038;3.712;2022-07-30T04:34:52;21.45;;;11.40;;
21198;SDS011;10757;51.038;3.712;2022-07-30T04:37:19;18.05;;;11.55;;
21198;SDS011;10757;51.038;3.712;2022-07-30T04:39:46;18.13;;;11.80;;
21198;SDS011;10757;51.038;3.712;2022-07-30T04:42:26;14.55;;;11.02;;
21198;SDS011;10757;51.038;3.712;2022-07-30T04:44:53;15.63;;;11.20;;
21198;SDS011;10757;51.038;3.712;2022-07-30T04:47:19;14.02;;;11.05;;
21198;SDS011;10757;51.038;3.712;2022-07-30T04:49:46;15.35;;;9.95;;
21198;SDS011;10757;51.038;3.712;2022-07-30T04:52:12;16.75;;;10.45;;
21198;SDS011;10757;51.038;3.712;2022-07-30T04:54:41;19.40;;;10.20;;
21198;SDS011;10757;51.038;3.712;2022-07-30T04:57:10;15.68;;;10.43;;
21198;SDS011;10757;51.038;3.712;2022-07-30T04:59:40;18.30;;;10.38;;
21198;SDS011;10757;51.038;3.712;2022-07-30T05:02:05;16.38;;;8.70;;
21198;SDS011;10757;51.038;3.712;2022-07-30T05:04:33;15.10;;;8.15;;
21198;SDS011;10757;51.038;3.712;2022-07-30T05:07:07;14.38;;;7.60;;
21198;SDS011;10757;51.038;3.712;2022-07-30T05:09:35;16.65;;;8.05;;
21198;SDS011;10757;51.038;3.712;2022-07-30T05:12:01;14.18;;;7.80;;
21198;SDS011;10757;51.038;3.712;2022-07-30T05:14:27;14.77;;;7.13;;
21198;SDS011;10757;51.038;3.712;2022-07-30T05:16:53;13.88;;;7.15;;
21198;SDS011;10757;51.038;3.712;2022-07-30T05:19:20;11.52;;;6.35;;
21198;SDS011;10757;51.038;3.712;2022-07-30T05:21:46;11.32;;;7.22;;
21198;SDS011;10757;51.038;3.712;2022-07-30T05:24:12;13.90;;;7.38;;
21198;SDS011;10757;51.038;3.712;2022-07-30T05:26:38;14.40;;;7.63;;
21198;SDS011;10757;51.038;3.712;2022-07-30T05:29:04;17.90;;;7.45;;
21198;SDS011;10757;51.038;3.712;2022-07-30T05:31:30;13.35;;;6.75;;
21198;SDS011;10757;51.038;3.712;2022-07-30T05:33:56;13.70;;;7.68;;
21198;SDS011;10757;51.038;3.712;2022-07-30T05:36:21;14.25;;;8.00;;
21198;SDS011;10757;51.038;3.712;2022-07-30T05:38:47;11.93;;;7.88;;
21198;SDS011;10757;51.038;3.712;2022-07-30T05:41:13;12.75;;;8.13;;
21198;SDS011;10757;51.038;3.712;2022-07-30T05:43:40;12.15;;;6.60;;
21198;SDS011;10757;51.038;3.712;2022-07-30T05:46:06;13.25;;;6.88;;
21198;SDS011;10757;51.038;3.712;2022-07-30T05:48:32;9.07;;;6.50;;
21198;SDS011;10757;51.038;3.712;2022-07-30T05:51:02;14.70;;;7.05;;
21198;SDS011;10757;51.038;3.712;2022-07-30T05:53:29;13.65;;;5.85;;
21198;SDS011;10757;51.038;3.712;2022-07-30T05:55:55;8.77;;;6.10;;
21198;SDS011;10757;51.038;3.712;2022-07-30T05:58:20;11.40;;;6.20;;
21198;SDS011;10757;51.038;3.712;2022-07-30T06:00:46;9.15;;;5.32;;
21198;SDS011;10757;51.038;3.712;2022-07-30T06:03:12;9.07;;;5.13;;
21198;SDS011;10757;51.038;3.712;2022-07-30T06:05:38;11.65;;;5.10;;
21198;SDS011;10757;51.038;3.712;2022-07-30T06:08:04;11.95;;;5.28;;
21198;SDS011;10757;51.038;3.712;2022-07-30T06:10:30;7.93;;;5.00;;
21198;SDS011;10757;51.038;3.712;2022-07-30T06:12:56;8.85;;;5.43;;
21198;SDS011;10757;51.038;3.712;2022-07-30T06:15:22;13.52;;;6.15;;
21198;SDS011;10757;51.038;3.712;2022-07-30T06:17:48;10.75;;;5.35;;
21198;SDS011;10757;51.038;3.712;2022-07-30T06:20:15;13.13;;;6.50;;
21198;SDS011;10757;51.038;3.712;2022-07-30T06:22:43;10.57;;;6.20;;
21198;SDS011;10757;51.038;3.712;2022-07-30T06:25:09;10.40;;;5.85;;
21198;SDS011;10757;51.038;3.712;2022-07-30T06:27:35;13.38;;;6.05;;
21198;SDS011;10757;51.038;3.712;2022-07-30T06:30:07;11.15;;;5.32;;
21198;SDS011;10757;51.038;3.712;2022-07-30T06:32:34;14.30;;;5.97;;
21198;SDS011;10757;51.038;3.712;2022-07-30T06:35:00;10.57;;;4.80;;
21198;SDS011;10757;51.038;3.712;2022-07-30T06:37:26;10.38;;;5.75;;
21198;SDS011;10757;51.038;3.712;2022-07-30T06:39:52;11.10;;;5.50;;
21198;SDS011;10757;51.038;3.712;2022-07-30T06:42:18;10.23;;;5.82;;
21198;SDS011;10757;51.038;3.712;2022-07-30T06:44:44;18.05;;;9.57;;
21198;SDS011;10757;51.038;3.712;2022-07-30T06:47:10;17.33;;;6.25;;
21198;SDS011;10757;51.038;3.712;2022-07-30T06:49:35;15.48;;;5.60;;
21198;SDS011;10757;51.038;3.712;2022-07-30T06:52:02;11.15;;;5.45;;
21198;SDS011;10757;51.038;3.712;2022-07-30T06:54:28;11.07;;;5.45;;
21198;SDS011;10757;51.038;3.712;2022-07-30T06:56:54;11.98;;;6.40;;
21198;SDS011;10757;51.038;3.712;2022-07-30T06:59:20;13.10;;;4.78;;
21198;SDS011;10757;51.038;3.712;2022-07-30T07:01:46;10.32;;;5.45;;
21198;SDS011;10757;51.038;3.712;2022-07-30T07:04:12;8.88;;;4.60;;
21198;SDS011;10757;51.038;3.712;2022-07-30T07:06:38;9.95;;;4.60;;
21198;SDS011;10757;51.038;3.712;2022-07-30T07:09:03;11.55;;;5.63;;
21198;SDS011;10757;51.038;3.712;2022-07-30T07:11:29;10.07;;;5.13;;
21198;SDS011;10757;51.038;3.712;2022-07-30T07:13:55;12.68;;;4.50;;
21198;SDS011;10757;51.038;3.712;2022-07-30T07:16:21;11.68;;;3.83;;
21198;SDS011;10757;51.038;3.712;2022-07-30T07:18:52;12.18;;;4.18;;
21198;SDS011;10757;51.038;3.712;2022-07-30T07:21:18;11.88;;;4.78;;
21198;SDS011;10757;51.038;3.712;2022-07-30T07:23:44;8.93;;;2.90;;
21198;SDS011;10757;51.038;3.712;2022-07-30T07:26:12;8.15;;;2.75;;
21198;SDS011;10757;51.038;3.712;2022-07-30T07:28:38;8.10;;;2.58;;
21198;SDS011;10757;51.038;3.712;2022-07-30T07:31:05;11.02;;;3.80;;
21198;SDS011;10757;51.038;3.712;2022-07-30T07:33:31;6.50;;;1.63;;
21198;SDS011;10757;51.038;3.712;2022-07-30T07:35:57;6.40;;;1.70;;
21198;SDS011;10757;51.038;3.712;2022-07-30T07:38:22;8.07;;;1.63;;
21198;SDS011;10757;51.038;3.712;2022-07-30T07:40:48;13.30;;;2.58;;
21198;SDS011;10757;51.038;3.712;2022-07-30T07:43:14;10.43;;;2.20;;
21198;SDS011;10757;51.038;3.712;2022-07-30T07:45:43;11.57;;;2.60;;
21198;SDS011;10757;51.038;3.712;2022-07-30T07:48:11;11.85;;;3.33;;
21198;SDS011;10757;51.038;3.712;2022-07-30T07:50:37;7.10;;;1.48;;
21198;SDS011;10757;51.038;3.712;2022-07-30T07:53:04;6.25;;;1.70;;
21198;SDS011;10757;51.038;3.712;2022-07-30T07:55:30;5.72;;;1.50;;
21198;SDS011;10757;51.038;3.712;2022-07-30T07:57:56;4.18;;;1.45;;
21198;SDS011;10757;51.038;3.712;2022-07-30T08:00:21;4.47;;;1.55;;
21198;SDS011;10757;51.038;3.712;2022-07-30T08:02:47;9.85;;;1.80;;
21198;SDS011;10757;51.038;3.712;2022-07-30T08:05:14;6.28;;;1.60;;
21198;SDS011;10757;51.038;3.712;2022-07-30T08:07:41;8.85;;;2.08;;
21198;SDS011;10757;51.038;3.712;2022-07-30T08:10:08;5.38;;;1.52;;
21198;SDS011;10757;51.038;3.712;2022-07-30T08:12:35;7.00;;;1.63;;
21198;SDS011;10757;51.038;3.712;2022-07-30T08:15:01;6.88;;;2.17;;
21198;SDS011;10757;51.038;3.712;2022-07-30T08:17:29;5.03;;;1.33;;
21198;SDS011;10757;51.038;3.712;2022-07-30T08:19:58;7.93;;;1.67;;
21198;SDS011;10757;51.038;3.712;2022-07-30T08:22:25;6.32;;;1.90;;
21198;SDS011;10757;51.038;3.712;2022-07-30T08:24:51;8.05;;;2.00;;
21198;SDS011;10757;51.038;3.712;2022-07-30T08:27:17;6.35;;;2.00;;
21198;SDS011;10757;51.038;3.712;2022-07-30T08:29:43;5.63;;;1.60;;
21198;SDS011;10757;51.038;3.712;2022-07-30T08:32:09;5.55;;;1.85;;
21198;SDS011;10757;51.038;3.712;2022-07-30T08:34:35;8.25;;;1.90;;
21198;SDS011;10757;51.038;3.712;2022-07-30T08:37:00;8.82;;;2.50;;
21198;SDS011;10757;51.038;3.712;2022-07-30T08:39:26;9.05;;;1.88;;
21198;SDS011;10757;51.038;3.712;2022-07-30T08:41:53;5.90;;;1.88;;
21198;SDS011;10757;51.038;3.712;2022-07-30T08:44:19;10.50;;;1.80;;
21198;SDS011;10757;51.038;3.712;2022-07-30T08:46:46;5.80;;;1.80;;
21198;SDS011;10757;51.038;3.712;2022-07-30T08:49:15;4.60;;;1.83;;
21198;SDS011;10757;51.038;3.712;2022-07-30T08:51:42;7.00;;;1.90;;
21198;SDS011;10757;51.038;3.712;2022-07-30T08:54:08;6.05;;;2.28;;
21198;SDS011;10757;51.038;3.712;2022-07-30T08:56:34;5.28;;;1.88;;
21198;SDS011;10757;51.038;3.712;2022-07-30T08:59:00;4.93;;;1.80;;
21198;SDS011;10757;51.038;3.712;2022-07-30T09:01:27;8.02;;;1.98;;
21198;SDS011;10757;51.038;3.712;2022-07-30T09:03:53;4.57;;;1.70;;
21198;SDS011;10757;51.038;3.712;2022-07-30T09:06:18;6.55;;;1.65;;
21198;SDS011;10757;51.038;3.712;2022-07-30T09:08:44;9.52;;;1.67;;
21198;SDS011;10757;51.038;3.712;2022-07-30T09:11:10;7.00;;;1.80;;
21198;SDS011;10757;51.038;3.712;2022-07-30T09:13:37;6.57;;;2.00;;
21198;SDS011;10757;51.038;3.712;2022-07-30T09:16:05;5.53;;;2.00;;
21198;SDS011;10757;51.038;3.712;2022-07-30T09:18:36;4.07;;;1.77;;
21198;SDS011;10757;51.038;3.712;2022-07-30T09:21:14;7.88;;;2.10;;
21198;SDS011;10757;51.038;3.712;2022-07-30T09:23:39;6.53;;;1.40;;
21198;SDS011;10757;51.038;3.712;2022-07-30T09:26:05;6.72;;;1.45;;
21198;SDS011;10757;51.038;3.712;2022-07-30T09:28:32;8.10;;;1.85;;
21198;SDS011;10757;51.038;3.712;2022-07-30T09:30:58;3.95;;;1.52;;
21198;SDS011;10757;51.038;3.712;2022-07-30T09:36:07;6.43;;;1.85;;
21198;SDS011;10757;51.038;3.712;2022-07-30T09:41:12;6.45;;;1.80;;
21198;SDS011;10757;51.038;3.712;2022-07-30T09:43:43;4.03;;;1.33;;
21198;SDS011;10757;51.038;3.712;2022-07-30T09:46:16;6.88;;;1.67;;
21198;SDS011;10757;51.038;3.712;2022-07-30T09:48:42;11.40;;;1.90;;
21198;SDS011;10757;51.038;3.712;2022-07-30T09:51:10;10.02;;;1.95;;
21198;SDS011;10757;51.038;3.712;2022-07-30T09:53:51;7.75;;;1.52;;
21198;SDS011;10757;51.038;3.712;2022-07-30T09:56:26;3.83;;;1.50;;
21198;SDS011;10757;51.038;3.712;2022-07-30T09:58:53;5.72;;;1.65;;
21198;SDS011;10757;51.038;3.712;2022-07-30T10:01:19;4.63;;;1.52;;
21198;SDS011;10757;51.038;3.712;2022-07-30T10:03:45;9.25;;;1.48;;
21198;SDS011;10757;51.038;3.712;2022-07-30T10:06:11;7.00;;;1.40;;
21198;SDS011;10757;51.038;3.712;2022-07-30T10:08:45;7.72;;;2.15;;
21198;SDS011;10757;51.038;3.712;2022-07-30T10:11:18;5.15;;;1.98;;
21198;SDS011;10757;51.038;3.712;2022-07-30T10:13:50;6.57;;;1.73;;
21198;SDS011;10757;51.038;3.712;2022-07-30T10:16:19;5.53;;;1.73;;
21198;SDS011;10757;51.038;3.712;2022-07-30T10:18:45;4.93;;;1.60;;
21198;SDS011;10757;51.038;3.712;2022-07-30T10:21:11;7.30;;;1.52;;
21198;SDS011;10757;51.038;3.712;2022-07-30T10:23:38;4.78;;;1.77;;
21198;SDS011;10757;51.038;3.712;2022-07-30T10:26:04;5.28;;;1.42;;
21198;SDS011;10757;51.038;3.712;2022-07-30T10:28:32;6.20;;;1.63;;
21198;SDS011;10757;51.038;3.712;2022-07-30T10:31:02;5.80;;;1.48;;
21198;SDS011;10757;51.038;3.712;2022-07-30T10:33:28;7.82;;;1.60;;
21198;SDS011;10757;51.038;3.712;2022-07-30T10:35:55;9.40;;;2.25;;
21198;SDS011;10757;51.038;3.712;2022-07-30T10:38:22;5.72;;;1.85;;
21198;SDS011;10757;51.038;3.712;2022-07-30T10:46:28;6.70;;;1.50;;
21198;SDS011;10757;51.038;3.712;2022-07-30T10:49:06;6.47;;;1.50;;
21198;SDS011;10757;51.038;3.712;2022-07-30T10:51:46;6.30;;;1.52;;
21198;SDS011;10757;51.038;3.712;2022-07-30T10:57:04;8.02;;;1.52;;
21198;SDS011;10757;51.038;3.712;2022-07-30T11:02:14;7.95;;;2.63;;
21198;SDS011;10757;51.038;3.712;2022-07-30T11:04:40;8.75;;;1.98;;
21198;SDS011;10757;51.038;3.712;2022-07-30T11:07:40;3.83;;;1.23;;
21198;SDS011;10757;51.038;3.712;2022-07-30T11:09:59;6.30;;;1.60;;
21198;SDS011;10757;51.038;3.712;2022-07-30T11:15:06;8.05;;;2.00;;
21198;SDS011;10757;51.038;3.712;2022-07-30T11:20:26;6.13;;;1.48;;
21198;SDS011;10757;51.038;3.712;2022-07-30T11:22:53;4.78;;;1.60;;
21198;SDS011;10757;51.038;3.712;2022-07-30T11:27:53;8.27;;;1.67;;
21198;SDS011;10757;51.038;3.712;2022-07-30T11:32:54;6.30;;;1.63;;
21198;SDS011;10757;51.038;3.712;2022-07-30T11:35:30;3.83;;;1.50;;
21198;SDS011;10757;51.038;3.712;2022-07-30T11:40:36;7.90;;;2.30;;
21198;SDS011;10757;51.038;3.712;2022-07-30T11:43:26;5.97;;;1.70;;
21198;SDS011;10757;51.038;3.712;2022-07-30T11:46:04;7.38;;;3.40;;
21198;SDS011;10757;51.038;3.712;2022-07-30T11:48:30;7.10;;;2.58;;
21198;SDS011;10757;51.038;3.712;2022-07-30T11:50:56;6.15;;;1.77;;
21198;SDS011;10757;51.038;3.712;2022-07-30T11:53:22;6.07;;;1.85;;
21198;SDS011;10757;51.038;3.712;2022-07-30T11:55:52;6.63;;;1.60;;
21198;SDS011;10757;51.038;3.712;2022-07-30T11:58:30;6.80;;;2.17;;
21198;SDS011;10757;51.038;3.712;2022-07-30T12:01:20;8.18;;;1.67;;
21198;SDS011;10757;51.038;3.712;2022-07-30T12:03:44;7.05;;;1.67;;
21198;SDS011;10757;51.038;3.712;2022-07-30T12:06:11;7.40;;;2.67;;
21198;SDS011;10757;51.038;3.712;2022-07-30T12:08:42;7.68;;;1.65;;
21198;SDS011;10757;51.038;3.712;2022-07-30T12:11:09;5.30;;;2.30;;
21198;SDS011;10757;51.038;3.712;2022-07-30T12:13:36;8.98;;;3.42;;
21198;SDS011;10757;51.038;3.712;2022-07-30T12:16:06;5.90;;;1.38;;
21198;SDS011;10757;51.038;3.712;2022-07-30T12:18:33;5.10;;;1.40;;
21198;SDS011;10757;51.038;3.712;2022-07-30T12:21:00;7.00;;;2.42;;
21198;SDS011;10757;51.038;3.712;2022-07-30T12:23:28;5.10;;;1.20;;
21198;SDS011;10757;51.038;3.712;2022-07-30T12:25:54;8.43;;;3.47;;
21198;SDS011;10757;51.038;3.712;2022-07-30T12:28:22;7.38;;;1.73;;
21198;SDS011;10757;51.038;3.712;2022-07-30T12:30:53;8.15;;;1.67;;
21198;SDS011;10757;51.038;3.712;2022-07-30T12:33:20;5.68;;;1.70;;
21198;SDS011;10757;51.038;3.712;2022-07-30T12:35:51;5.18;;;2.05;;
21198;SDS011;10757;51.038;3.712;2022-07-30T12:38:19;6.32;;;1.27;;
21198;SDS011;10757;51.038;3.712;2022-07-30T12:40:49;10.75;;;2.03;;
21198;SDS011;10757;51.038;3.712;2022-07-30T12:43:40;8.30;;;2.40;;
21198;SDS011;10757;51.038;3.712;2022-07-30T12:46:07;6.88;;;1.65;;
21198;SDS011;10757;51.038;3.712;2022-07-30T12:48:32;9.73;;;1.70;;
21198;SDS011;10757;51.038;3.712;2022-07-30T12:51:05;6.32;;;1.88;;
21198;SDS011;10757;51.038;3.712;2022-07-30T12:53:36;7.38;;;2.42;;
21198;SDS011;10757;51.038;3.712;2022-07-30T12:56:09;5.80;;;3.97;;
21198;SDS011;10757;51.038;3.712;2022-07-30T12:58:40;6.72;;;1.55;;
21198;SDS011;10757;51.038;3.712;2022-07-30T13:01:06;4.28;;;1.40;;
21198;SDS011;10757;51.038;3.712;2022-07-30T13:03:32;9.27;;;2.00;;
21198;SDS011;10757;51.038;3.712;2022-07-30T13:06:21;5.28;;;1.58;;
21198;SDS011;10757;51.038;3.712;2022-07-30T13:08:52;3.88;;;1.40;;
21198;SDS011;10757;51.038;3.712;2022-07-30T13:11:20;6.75;;;2.65;;
21198;SDS011;10757;51.038;3.712;2022-07-30T13:13:47;6.22;;;1.45;;
21198;SDS011;10757;51.038;3.712;2022-07-30T13:16:14;5.65;;;1.58;;
21198;SDS011;10757;51.038;3.712;2022-07-30T13:18:40;7.57;;;3.72;;
21198;SDS011;10757;51.038;3.712;2022-07-30T13:21:06;5.35;;;1.40;;
21198;SDS011;10757;51.038;3.712;2022-07-30T13:23:33;4.55;;;1.83;;
21198;SDS011;10757;51.038;3.712;2022-07-30T13:26:00;8.02;;;2.15;;
21198;SDS011;10757;51.038;3.712;2022-07-30T13:28:27;3.38;;;1.63;;
21198;SDS011;10757;51.038;3.712;2022-07-30T13:30:53;6.57;;;1.50;;
21198;SDS011;10757;51.038;3.712;2022-07-30T13:33:20;8.82;;;2.47;;
21198;SDS011;10757;51.038;3.712;2022-07-30T13:35:46;4.32;;;1.33;;
21198;SDS011;10757;51.038;3.712;2022-07-30T13:38:12;6.35;;;1.55;;
21198;SDS011;10757;51.038;3.712;2022-07-30T13:40:38;4.88;;;1.40;;
21198;SDS011;10757;51.038;3.712;2022-07-30T13:43:04;6.15;;;1.20;;
21198;SDS011;10757;51.038;3.712;2022-07-30T13:45:30;7.07;;;1.70;;
21198;SDS011;10757;51.038;3.712;2022-07-30T13:47:56;5.35;;;1.70;;
21198;SDS011;10757;51.038;3.712;2022-07-30T13:50:21;6.45;;;1.70;;
21198;SDS011;10757;51.038;3.712;2022-07-30T13:52:47;6.10;;;1.50;;
21198;SDS011;10757;51.038;3.712;2022-07-30T13:55:13;4.93;;;1.85;;
21198;SDS011;10757;51.038;3.712;2022-07-30T13:57:39;6.10;;;1.90;;
21198;SDS011;10757;51.038;3.712;2022-07-30T14:00:05;8.32;;;1.60;;
21198;SDS011;10757;51.038;3.712;2022-07-30T14:02:33;14.23;;;1.70;;
21198;SDS011;10757;51.038;3.712;2022-07-30T14:04:59;7.38;;;1.73;;
21198;SDS011;10757;51.038;3.712;2022-07-30T14:07:30;3.10;;;1.38;;
21198;SDS011;10757;51.038;3.712;2022-07-30T14:10:03;4.63;;;1.48;;
21198;SDS011;10757;51.038;3.712;2022-07-30T14:12:31;6.47;;;2.10;;
21198;SDS011;10757;51.038;3.712;2022-07-30T14:15:02;6.13;;;1.67;;
21198;SDS011;10757;51.038;3.712;2022-07-30T14:17:28;5.88;;;1.73;;
21198;SDS011;10757;51.038;3.712;2022-07-30T14:19:53;9.05;;;1.83;;
21198;SDS011;10757;51.038;3.712;2022-07-30T14:22:20;7.25;;;1.90;;
21198;SDS011;10757;51.038;3.712;2022-07-30T14:24:46;6.55;;;1.92;;
21198;SDS011;10757;51.038;3.712;2022-07-30T14:27:12;18.15;;;6.88;;
21198;SDS011;10757;51.038;3.712;2022-07-30T14:29:38;8.45;;;2.47;;
21198;SDS011;10757;51.038;3.712;2022-07-30T14:32:05;4.53;;;2.00;;
21198;SDS011;10757;51.038;3.712;2022-07-30T14:34:31;7.97;;;2.00;;
21198;SDS011;10757;51.038;3.712;2022-07-30T14:36:57;7.20;;;2.25;;
21198;SDS011;10757;51.038;3.712;2022-07-30T14:39:23;4.82;;;1.80;;
21198;SDS011;10757;51.038;3.712;2022-07-30T14:41:48;5.05;;;1.70;;
21198;SDS011;10757;51.038;3.712;2022-07-30T14:44:14;6.72;;;1.55;;
21198;SDS011;10757;51.038;3.712;2022-07-30T14:46:42;6.05;;;1.58;;
21198;SDS011;10757;51.038;3.712;2022-07-30T14:49:08;8.35;;;2.05;;
21198;SDS011;10757;51.038;3.712;2022-07-30T14:51:34;5.57;;;1.80;;
21198;SDS011;10757;51.038;3.712;2022-07-30T14:54:01;6.40;;;1.45;;
21198;SDS011;10757;51.038;3.712;2022-07-30T14:56:27;3.53;;;1.83;;
21198;SDS011;10757;51.038;3.712;2022-07-30T14:58:53;6.22;;;1.77;;
21198;SDS011;10757;51.038;3.712;2022-07-30T15:01:19;7.22;;;2.00;;
21198;SDS011;10757;51.038;3.712;2022-07-30T15:03:44;3.58;;;1.40;;
21198;SDS011;10757;51.038;3.712;2022-07-30T15:06:10;8.43;;;2.38;;
21198;SDS011;10757;51.038;3.712;2022-07-30T15:08:39;6.60;;;2.63;;
21198;SDS011;10757;51.038;3.712;2022-07-30T15:11:05;5.85;;;2.78;;
21198;SDS011;10757;51.038;3.712;2022-07-30T15:13:31;5.75;;;2.15;;
21198;SDS011;10757;51.038;3.712;2022-07-30T15:15:57;6.05;;;1.77;;
21198;SDS011;10757;51.038;3.712;2022-07-30T15:18:22;6.85;;;2.35;;
21198;SDS011;10757;51.038;3.712;2022-07-30T15:20:48;4.68;;;1.80;;
21198;SDS011;10757;51.038;3.712;2022-07-30T15:23:13;8.82;;;2.33;;